Time;durP1;ratioP1;P1;durP2;ratioP2;P2;SDS_P1;SDS_P2;PMS_P1;PMS_P2;Temp;Humidity;BMP_temperature;BMP_pressure;BME280_temperature;BME280_humidity;BME280_pressure;Samples;Min_cycle;Max_cycle;Signal;HPM_P1;HPM_P2
2021/09/03 00:01:28;;;;;;;;;29.50;26.75;;;;;19.03;66.13;101632.97;5079116;28;45454;-63
2021/09/03 00:03:53;;;;;;;;;32.50;30.00;;;;;19.05;65.58;101631.13;5079204;28;45453;-62
2021/09/03 00:06:23;;;;;;;;;29.25;25.00;;;;;19.01;66.31;101633.03;5079111;27;45282;-62
2021/09/03 00:08:49;;;;;;;;;32.50;29.75;;;;;18.96;66.50;101627.13;5105218;27;45454;-61
2021/09/03 00:11:14;;;;;;;;;33.75;27.50;;;;;18.94;66.33;101622.88;5099508;27;45251;-62
2021/09/03 00:13:40;;;;;;;;;35.25;29.50;;;;;18.90;67.29;101635.34;5081676;27;47068;-63
2021/09/03 00:16:05;;;;;;;;;31.00;30.00;;;;;18.89;66.68;101627.50;5098134;27;45321;-62
2021/09/03 00:18:31;;;;;;;;;32.00;27.25;;;;;18.84;66.66;101622.47;5099780;27;45481;-63
2021/09/03 00:20:56;;;;;;;;;28.50;27.50;;;;;18.81;66.94;101627.84;5099185;27;45350;-62
2021/09/03 00:23:21;;;;;;;;;32.75;27.75;;;;;18.81;67.01;101625.22;5099337;27;45356;-62
2021/09/03 00:25:47;;;;;;;;;35.25;30.50;;;;;18.76;66.27;101614.91;5097992;27;45405;-62
2021/09/03 00:28:12;;;;;;;;;32.00;29.75;;;;;18.72;68.35;101618.63;5099461;27;45387;-62
2021/09/03 00:30:38;;;;;;;;;30.00;27.25;;;;;18.66;67.70;101612.81;5099355;27;45379;-62
2021/09/03 00:33:03;;;;;;;;;29.25;27.25;;;;;18.62;67.74;101611.19;5099491;27;45346;-62
2021/09/03 00:35:29;;;;;;;;;29.25;27.25;;;;;18.61;67.69;101606.84;5099018;27;45241;-63
2021/09/03 00:37:54;;;;;;;;;28.25;25.25;;;;;18.57;67.96;101610.56;5099416;27;45169;-63
2021/09/03 00:40:20;;;;;;;;;34.25;29.00;;;;;18.58;69.30;101601.72;5099135;27;45201;-63
2021/09/03 00:42:45;;;;;;;;;29.75;27.25;;;;;18.54;68.82;101609.78;5102438;27;46266;-63
2021/09/03 00:45:11;;;;;;;;;36.75;29.75;;;;;18.53;69.25;101612.47;5102589;27;45230;-63
2021/09/03 00:47:36;;;;;;;;;32.25;29.00;;;;;18.50;68.83;101597.69;5103086;27;45285;-63
2021/09/03 00:50:03;;;;;;;;;33.75;28.00;;;;;18.51;69.38;101595.91;5102339;27;45172;-63
2021/09/03 00:52:28;;;;;;;;;30.75;28.00;;;;;18.48;69.12;101596.06;5084300;27;46238;-64
2021/09/03 00:54:57;;;;;;;;;30.50;28.75;;;;;18.44;69.36;101591.88;5102513;27;45495;-64
2021/09/03 00:57:25;;;;;;;;;33.75;31.00;;;;;18.44;69.54;101587.47;5102829;27;45267;-64
2021/09/03 00:59:53;;;;;;;;;34.00;30.75;;;;;18.42;70.09;101586.69;5101543;27;45519;-64
2021/09/03 01:02:19;;;;;;;;;33.50;27.25;;;;;18.38;69.83;101579.81;5102311;27;47004;-64
2021/09/03 01:04:44;;;;;;;;;36.25;30.25;;;;;18.37;69.15;101578.13;5102045;27;45502;-64
2021/09/03 01:07:12;;;;;;;;;33.25;27.00;;;;;18.37;69.42;101579.91;5109162;27;45444;-64
2021/09/03 01:09:37;;;;;;;;;31.75;28.25;;;;;18.35;69.00;101577.34;5103440;27;45450;-64
2021/09/03 01:12:03;;;;;;;;;33.25;30.00;;;;;18.33;69.54;101581.81;5102581;27;45325;-64
2021/09/03 01:14:29;;;;;;;;;35.50;30.00;;;;;18.28;69.47;101575.94;5101963;27;45314;-64
2021/09/03 01:16:54;;;;;;;;;36.25;29.50;;;;;18.27;69.60;101578.63;5102457;27;45386;-64
2021/09/03 01:19:20;;;;;;;;;32.00;28.50;;;;;18.23;73.31;101570.88;5102066;27;45247;-65
2021/09/03 01:21:52;;;;;;;;;35.50;30.00;;;;;18.21;70.68;101569.22;5102081;27;45394;-64
2021/09/03 01:24:18;;;;;;;;;35.00;29.75;;;;;18.18;70.09;101574.63;5101918;27;45516;-64
2021/09/03 01:26:45;;;;;;;;;31.75;28.50;;;;;18.17;70.26;101570.28;5091711;27;45313;-64
2021/09/03 01:29:12;;;;;;;;;38.25;30.00;;;;;18.13;70.10;101566.94;5100675;27;45268;-62
2021/09/03 01:31:38;;;;;;;;;33.25;29.75;;;;;18.11;71.31;101567.94;5101975;27;45520;-63
2021/09/03 01:34:03;;;;;;;;;33.25;29.50;;;;;18.08;71.13;101562.84;5102013;27;45176;-63
2021/09/03 01:36:30;;;;;;;;;38.75;29.50;;;;;18.07;70.54;101555.88;5101904;27;45237;-64
2021/09/03 01:38:56;;;;;;;;;31.50;30.25;;;;;18.04;71.17;101569.16;5101651;27;45655;-63
2021/09/03 01:41:22;;;;;;;;;35.50;30.00;;;;;18.02;70.02;101561.34;5101596;27;45333;-63
2021/09/03 01:43:49;;;;;;;;;37.75;31.75;;;;;18.00;72.28;101570.19;5083288;27;45884;-63
2021/09/03 01:46:14;;;;;;;;;39.50;32.50;;;;;17.97;71.85;101570.34;5102279;27;45236;-63
2021/09/03 01:48:40;;;;;;;;;38.50;30.25;;;;;17.91;71.79;101555.69;5102187;27;45432;-62
2021/09/03 01:51:05;;;;;;;;;32.50;30.00;;;;;17.88;71.62;101551.44;5082271;27;47043;-62
2021/09/03 01:53:31;;;;;;;;;37.75;33.25;;;;;17.87;72.38;101554.13;5100798;27;45334;-62
2021/09/03 01:55:56;;;;;;;;;36.50;32.00;;;;;17.83;71.51;101555.22;5102179;27;45398;-62
2021/09/03 01:58:21;;;;;;;;;36.75;29.00;;;;;17.79;72.28;101550.97;5101794;27;45433;-62
2021/09/03 02:00:47;;;;;;;;;37.75;29.25;;;;;17.78;71.91;101554.53;5100376;27;46351;-63
2021/09/03 02:03:14;;;;;;;;;38.75;32.00;;;;;17.74;72.05;101556.44;5101959;27;45301;-62
2021/09/03 02:05:42;;;;;;;;;41.00;33.00;;;;;17.73;71.74;101562.63;5101597;27;45394;-62
2021/09/03 02:08:08;;;;;;;;;37.50;32.75;;;;;17.72;72.42;101562.69;5110310;27;45570;-64
2021/09/03 02:10:33;;;;;;;;;37.00;30.25;;;;;17.70;72.29;101557.50;5101807;27;45263;-64
2021/09/03 02:13:01;;;;;;;;;33.25;30.00;;;;;17.70;72.24;101560.13;5101490;27;45257;-64
2021/09/03 02:15:26;;;;;;;;;42.00;34.00;;;;;17.66;72.53;101555.91;5101785;27;45375;-64
2021/09/03 02:17:52;;;;;;;;;41.00;33.00;;;;;17.66;72.81;101560.31;5101505;27;45238;-63
2021/09/03 02:20:17;;;;;;;;;42.25;32.75;;;;;17.65;73.12;101556.84;5101467;27;45341;-63
2021/09/03 02:22:42;;;;;;;;;43.75;33.50;;;;;17.61;73.11;101558.72;5101070;27;45258;-63
2021/09/03 02:25:12;;;;;;;;;31.75;29.50;;;;;17.54;75.62;101551.19;5083057;27;45365;-63
2021/09/03 02:27:38;;;;;;;;;34.25;31.00;;;;;17.53;73.60;101558.22;5100528;27;45497;-68
2021/09/03 02:30:06;;;;;;;;;38.50;33.50;;;;;17.51;72.37;101546.91;5101250;27;46503;-64
2021/09/03 02:32:31;;;;;;;;;33.75;24.50;;;;;17.48;73.80;101546.19;5101405;27;45199;-64
2021/09/03 02:34:56;;;;;;;;;37.50;31.25;;;;;17.44;73.56;101544.63;5101297;27;45459;-70
2021/09/03 02:37:22;;;;;;;;;37.00;32.75;;;;;17.43;73.70;101551.66;5101183;27;45682;-70
2021/09/03 02:39:47;;;;;;;;;36.75;33.75;;;;;17.41;73.42;101535.06;5101005;27;45452;-70
2021/09/03 02:42:13;;;;;;;;;46.00;34.00;;;;;17.39;74.81;101541.31;5101294;27;45320;-65
2021/09/03 02:44:38;;;;;;;;;39.00;32.75;;;;;17.37;73.68;101540.53;5101412;27;45206;-64
2021/09/03 02:47:04;;;;;;;;;48.25;36.25;;;;;17.38;73.83;101542.25;5101270;27;45550;-65
2021/09/03 02:49:32;;;;;;;;;40.00;34.75;;;;;17.36;74.69;101536.19;5100935;27;46362;-67
2021/09/03 02:51:58;;;;;;;;;45.00;34.75;;;;;17.33;73.27;101535.41;5100949;27;45896;-67
2021/09/03 02:54:23;;;;;;;;;40.00;33.50;;;;;17.30;74.74;101535.56;5100852;27;45281;-63
2021/09/03 02:56:51;;;;;;;;;41.00;33.50;;;;;17.26;75.26;101536.63;5100867;27;45595;-63
2021/09/03 02:59:17;;;;;;;;;45.50;37.00;;;;;17.23;73.36;101530.63;5098289;27;45610;-64
2021/09/03 03:01:42;;;;;;;;;41.25;33.25;;;;;17.19;75.10;101529.88;5093812;27;45601;-64
2021/09/03 03:04:07;;;;;;;;;38.75;33.75;;;;;17.16;73.90;101537.03;5098248;27;45325;-64
2021/09/03 03:06:33;;;;;;;;;40.50;33.25;;;;;17.14;74.35;101539.75;5100628;27;45259;-64
2021/09/03 03:08:58;;;;;;;;;49.00;38.00;;;;;17.13;74.47;101534.56;5104478;27;45559;-64
2021/09/03 03:11:23;;;;;;;;;45.00;37.75;;;;;17.10;74.35;101540.78;5098431;27;45407;-63
2021/09/03 03:14:02;;;;;;;;;43.00;35.00;;;;;17.05;74.89;101532.25;5098231;27;45546;-66
2021/09/03 03:16:27;;;;;;;;;39.25;34.75;;;;;17.00;76.06;101526.31;5098538;27;45665;-65
2021/09/03 03:18:53;;;;;;;;;44.50;33.50;;;;;16.98;76.49;101536.03;5097787;27;45758;-65
2021/09/03 03:21:18;;;;;;;;;45.50;36.50;;;;;16.94;77.11;101532.69;5097874;27;45515;-66
2021/09/03 03:23:43;;;;;;;;;41.00;33.50;;;;;16.88;76.55;101535.59;5097754;27;45425;-65
2021/09/03 03:26:09;;;;;;;;;45.50;36.50;;;;;16.86;75.83;101526.06;5098001;27;45501;-65
2021/09/03 03:28:34;;;;;;;;;48.75;37.00;;;;;16.85;76.92;101532.22;5097509;27;46597;-65
2021/09/03 03:30:59;;;;;;;;;46.50;37.00;;;;;16.84;76.36;101528.75;5096680;27;45549;-65
2021/09/03 03:33:25;;;;;;;;;46.00;36.75;;;;;16.82;78.02;101533.22;5100133;27;45177;-68
2021/09/03 03:35:50;;;;;;;;;41.75;33.75;;;;;16.80;77.97;101521.03;5100047;27;45263;-68
2021/09/03 03:38:18;;;;;;;;;48.25;38.50;;;;;16.77;77.97;101531.66;5099827;27;46338;-68
2021/09/03 03:40:44;;;;;;;;;44.25;35.75;;;;;16.76;77.13;101519.47;5100205;27;45544;-65
2021/09/03 03:43:09;;;;;;;;;48.50;36.25;;;;;16.76;76.93;101524.72;5100226;27;45320;-64
2021/09/03 03:45:34;;;;;;;;;43.25;36.25;;;;;16.73;79.38;101520.44;5100226;27;45407;-73
2021/09/03 03:48:00;;;;;;;;;43.50;36.00;;;;;16.67;79.16;101518.94;5100066;27;46338;-70
2021/09/03 03:50:25;;;;;;;;;47.50;36.25;;;;;16.67;78.49;101518.06;5100057;27;45248;-75
2021/09/03 03:52:50;;;;;;;;;46.75;36.50;;;;;16.65;78.67;101514.63;5100228;27;45433;-67
2021/09/03 03:55:16;;;;;;;;;49.25;37.75;;;;;16.59;79.11;101507.84;5100255;27;45457;-63
2021/09/03 03:57:41;;;;;;;;;46.50;38.25;;;;;16.57;79.71;101511.44;5099972;27;45277;-63
2021/09/03 04:00:10;;;;;;;;;48.75;39.75;;;;;16.54;79.88;101506.31;5100193;27;45553;-64
2021/09/03 04:02:35;;;;;;;;;48.00;36.75;;;;;16.52;79.45;101509.00;5099969;27;45216;-63
2021/09/03 04:05:01;;;;;;;;;50.75;38.50;;;;;16.53;79.18;101504.63;5081259;27;45346;-63
2021/09/03 04:07:26;;;;;;;;;47.75;36.25;;;;;16.52;77.94;101506.38;5107948;27;47008;-62
2021/09/03 04:09:51;;;;;;;;;54.25;41.00;;;;;16.53;78.20;101507.25;5099753;27;45276;-63
2021/09/03 04:12:19;;;;;;;;;48.75;39.50;;;;;16.53;79.91;101515.97;5100112;27;45201;-67
2021/09/03 04:14:44;;;;;;;;;51.75;37.50;;;;;16.49;79.13;101510.91;5099376;27;45288;-67
2021/09/03 04:17:10;;;;;;;;;49.75;39.00;;;;;16.48;78.80;101507.44;5101928;27;45467;-68
2021/09/03 04:19:35;;;;;;;;;51.50;39.25;;;;;16.52;79.50;101516.03;5084727;27;45264;-65
2021/09/03 04:22:01;;;;;;;;;51.75;40.25;;;;;16.52;78.36;101521.28;5103035;27;45384;-64
2021/09/03 04:24:26;;;;;;;;;41.50;36.25;;;;;16.50;77.66;101510.84;5103363;27;45325;-64
2021/09/03 04:26:54;;;;;;;;;48.50;35.00;;;;;16.49;78.34;101510.91;5102934;27;46510;-64
2021/09/03 04:29:19;;;;;;;;;51.25;39.00;;;;;16.42;79.59;101508.53;5102868;27;45844;-69
2021/09/03 04:31:45;;;;;;;;;50.25;38.50;;;;;16.45;78.73;101512.81;5102718;27;45402;-72
2021/09/03 04:34:10;;;;;;;;;47.25;37.00;;;;;16.44;79.16;101511.09;5102871;27;45392;-72
2021/09/03 04:36:35;;;;;;;;;49.75;39.75;;;;;16.43;79.51;101517.25;5102405;27;46259;-74
2021/09/03 04:39:01;;;;;;;;;51.25;39.00;;;;;16.43;79.15;101527.75;5102668;27;45169;-65
2021/09/03 04:41:26;;;;;;;;;50.25;38.00;;;;;16.43;79.15;101518.13;5102631;27;45351;-65
2021/09/03 04:43:51;;;;;;;;;48.00;38.50;;;;;16.48;78.68;101530.19;5102630;27;45660;-63
2021/09/03 04:46:17;;;;;;;;;47.50;39.25;;;;;16.47;78.84;101521.47;5102471;27;46617;-63
2021/09/03 04:48:42;;;;;;;;;49.00;40.00;;;;;16.46;79.03;101519.75;5102468;27;45204;-63
2021/09/03 04:51:08;;;;;;;;;51.50;40.50;;;;;16.42;79.16;101516.41;5081925;27;45221;-63
2021/09/03 04:53:33;;;;;;;;;57.50;42.00;;;;;16.37;79.43;101526.19;5101744;27;45405;-63
2021/09/03 04:55:58;;;;;;;;;52.75;40.00;;;;;16.35;79.03;101516.69;5082243;27;47197;-63
2021/09/03 04:58:24;;;;;;;;;50.75;40.00;;;;;16.33;79.83;101519.38;5101743;27;45402;-63
2021/09/03 05:00:49;;;;;;;;;51.75;40.50;;;;;16.33;78.84;101521.13;5101989;27;45352;-63
2021/09/03 05:03:15;;;;;;;;;54.25;37.75;;;;;16.32;78.78;101514.19;5102350;27;45303;-63
2021/09/03 05:05:40;;;;;;;;;54.25;41.75;;;;;16.28;78.30;101502.97;5101210;27;45418;-63
2021/09/03 05:08:06;;;;;;;;;50.00;40.75;;;;;16.27;80.36;101506.50;5109733;27;45321;-64
2021/09/03 05:10:32;;;;;;;;;51.00;39.50;;;;;16.23;79.22;101507.53;5101471;27;45259;-63
2021/09/03 05:13:00;;;;;;;;;49.25;40.00;;;;;16.23;79.74;101509.31;5101377;27;45315;-63
2021/09/03 05:15:34;;;;;;;;;54.00;43.50;;;;;16.24;79.93;101506.63;5101082;27;45618;-64
2021/09/03 05:17:59;;;;;;;;;54.25;37.75;;;;;16.21;79.69;101500.63;5099586;27;45885;-64
2021/09/03 05:20:25;;;;;;;;;48.00;39.75;;;;;16.20;79.22;101506.78;5101635;27;45310;-63
2021/09/03 05:22:50;;;;;;;;;51.00;40.50;;;;;16.16;80.03;101507.81;5100649;27;45437;-66
2021/09/03 05:25:15;;;;;;;;;58.00;40.25;;;;;16.13;80.48;101511.41;5101582;27;46341;-70
2021/09/03 05:27:42;;;;;;;;;49.25;41.00;;;;;16.12;81.13;101510.56;5101543;27;45257;-66
2021/09/03 05:30:11;;;;;;;;;53.00;42.00;;;;;16.11;81.41;101511.47;5082913;27;45315;-64
2021/09/03 05:32:37;;;;;;;;;52.00;39.00;;;;;16.10;80.61;101514.16;5101297;27;45243;-65
2021/09/03 05:35:07;;;;;;;;;60.00;40.25;;;;;16.10;80.72;101511.53;5081551;27;47877;-63
2021/09/03 05:37:32;;;;;;;;;52.50;41.75;;;;;16.10;80.85;101515.00;5101396;27;45153;-76
2021/09/03 05:40:00;;;;;;;;;53.50;43.25;;;;;16.10;81.15;101516.78;5082987;27;45277;-70
2021/09/03 05:42:25;;;;;;;;;52.50;42.75;;;;;16.10;80.31;101520.25;5101963;27;45305;-72
2021/09/03 05:44:51;;;;;;;;;56.00;43.25;;;;;16.12;80.95;101518.44;5083087;27;46766;-62
2021/09/03 05:47:16;;;;;;;;;57.25;43.75;;;;;16.13;80.34;101511.41;5101833;27;45298;-63
2021/09/03 05:49:41;;;;;;;;;55.00;42.00;;;;;16.17;80.36;101509.53;5101265;27;45262;-62
2021/09/03 05:52:07;;;;;;;;;54.00;43.25;;;;;16.20;80.97;101514.66;5101397;27;45379;-64
2021/09/03 05:54:32;;;;;;;;;54.75;42.00;;;;;16.22;81.47;101512.81;5100435;27;45326;-65
2021/09/03 05:56:58;;;;;;;;;55.75;42.00;;;;;16.23;81.05;101517.19;5101380;27;45440;-61
2021/09/03 05:59:23;;;;;;;;;50.75;43.00;;;;;16.27;80.39;101516.16;5100891;27;45514;-67
2021/09/03 06:01:49;;;;;;;;;54.75;42.50;;;;;16.29;80.11;101515.16;5101207;27;45311;-63
2021/09/03 06:04:14;;;;;;;;;53.50;43.00;;;;;16.32;79.56;101508.94;5101069;27;46594;-66
2021/09/03 06:06:39;;;;;;;;;53.25;40.50;;;;;16.40;79.36;101519.97;5104080;27;45457;-58
2021/09/03 06:09:05;;;;;;;;;54.75;43.25;;;;;16.45;79.67;101519.81;5106819;27;45267;-64
2021/09/03 06:11:30;;;;;;;;;56.50;42.25;;;;;16.50;80.50;101523.09;5101125;27;45179;-61
2021/09/03 06:13:58;;;;;;;;;56.00;42.25;;;;;16.52;79.42;101519.50;5100690;27;46089;-61
2021/09/03 06:16:24;;;;;;;;;53.50;41.25;;;;;16.59;79.01;101526.22;5101478;27;45843;-60
2021/09/03 06:18:50;;;;;;;;;49.25;39.50;;;;;16.66;78.62;101525.09;5101268;27;45324;-60
2021/09/03 06:21:16;;;;;;;;;53.50;41.00;;;;;16.70;78.86;101520.56;5100712;27;45317;-60
2021/09/03 06:23:42;;;;;;;;;52.75;40.00;;;;;16.75;78.59;101530.88;5100583;27;46293;-60
2021/09/03 06:26:07;;;;;;;;;54.75;40.00;;;;;16.79;78.82;101524.59;5101155;27;45318;-60
2021/09/03 06:28:32;;;;;;;;;51.25;40.00;;;;;16.83;78.40;101520.94;5100531;27;45740;-60
2021/09/03 06:30:58;;;;;;;;;51.75;39.50;;;;;16.87;78.63;101523.38;5101004;27;45519;-59
2021/09/03 06:33:23;;;;;;;;;55.75;42.50;;;;;16.91;78.35;101530.19;5100549;27;45416;-59
2021/09/03 06:35:48;;;;;;;;;53.00;42.75;;;;;16.99;77.83;101528.09;5100701;27;45341;-65
2021/09/03 06:38:14;;;;;;;;;50.75;40.00;;;;;17.10;77.82;101530.28;5099576;27;45364;-60
2021/09/03 06:40:39;;;;;;;;;54.75;41.75;;;;;17.15;77.62;101525.69;5099749;27;45424;-61
2021/09/03 06:43:05;;;;;;;;;50.75;39.50;;;;;17.16;77.27;101524.78;5099841;27;46435;-61
2021/09/03 06:45:30;;;;;;;;;51.25;41.75;;;;;17.20;77.23;101521.09;5100402;27;45230;-61
2021/09/03 06:47:55;;;;;;;;;49.50;40.25;;;;;17.23;77.16;101514.88;5099966;27;45303;-60
2021/09/03 06:50:21;;;;;;;;;52.00;41.75;;;;;17.32;76.88;101517.94;5100096;27;45371;-61
2021/09/03 06:52:48;;;;;;;;;51.25;41.75;;;;;17.41;76.64;101518.47;5099517;27;46483;-61
2021/09/03 06:55:13;;;;;;;;;44.50;36.50;;;;;17.45;76.21;101525.31;5100387;27;45239;-60
2021/09/03 06:57:39;;;;;;;;;51.25;39.00;;;;;17.50;75.83;101523.31;5100385;27;45229;-61
2021/09/03 07:00:06;;;;;;;;;48.00;38.00;;;;;17.59;75.73;101515.03;5100102;27;45376;-61
2021/09/03 07:02:31;;;;;;;;;51.25;40.00;;;;;17.64;75.15;101524.44;5099909;27;46372;-61
2021/09/03 07:04:56;;;;;;;;;54.00;41.75;;;;;17.69;75.21;101526.03;5100087;27;45371;-61
2021/09/03 07:07:22;;;;;;;;;50.25;39.00;;;;;17.74;75.11;101524.91;5107768;27;45471;-61
2021/09/03 07:09:47;;;;;;;;;49.50;37.00;;;;;17.80;74.85;101507.97;5099562;27;45344;-62
2021/09/03 07:12:13;;;;;;;;;48.25;37.50;;;;;17.86;74.53;101510.34;5099851;27;45469;-60
2021/09/03 07:14:38;;;;;;;;;47.75;38.50;;;;;18.02;74.45;101529.78;5099637;27;45341;-67
2021/09/03 07:17:06;;;;;;;;;46.75;37.00;;;;;18.11;74.21;101531.13;5098312;27;45846;-54
2021/09/03 07:19:33;;;;;;;;;39.75;35.25;;;;;18.20;73.79;101528.06;5099117;27;45229;-53
2021/09/03 07:21:58;;;;;;;;;43.25;37.00;;;;;18.32;73.28;101530.13;5098883;27;46831;-69
2021/09/03 07:24:23;;;;;;;;;48.50;39.00;;;;;18.43;73.42;101512.06;5094335;27;45492;-70
2021/09/03 07:26:49;;;;;;;;;49.50;38.25;;;;;18.54;72.73;101522.06;5100042;27;45269;-72
2021/09/03 07:29:14;;;;;;;;;46.75;39.00;;;;;18.60;72.43;101527.00;5099649;27;45311;-71
2021/09/03 07:31:40;;;;;;;;;44.50;35.25;;;;;18.62;72.14;101525.19;5100086;27;46772;-70
2021/09/03 07:34:05;;;;;;;;;47.25;35.50;;;;;18.69;71.74;101523.97;5099878;27;45497;-73
2021/09/03 07:36:31;;;;;;;;;42.25;34.50;;;;;18.79;71.83;101519.94;5100000;27;45335;-72
2021/09/03 07:38:56;;;;;;;;;41.50;36.75;;;;;18.85;71.47;101518.81;5099066;27;45289;-70
2021/09/03 07:41:23;;;;;;;;;46.25;35.25;;;;;18.96;71.04;101519.13;5099423;27;45731;-68
2021/09/03 07:43:48;;;;;;;;;38.00;33.00;;;;;19.09;71.22;101517.59;5099688;27;45500;-70
2021/09/03 07:46:14;;;;;;;;;42.75;34.00;;;;;19.17;70.39;101519.81;5081222;27;45368;-69
2021/09/03 07:48:39;;;;;;;;;42.00;34.00;;;;;19.20;70.53;101521.44;5098310;27;45298;-70
2021/09/03 07:51:05;;;;;;;;;43.75;31.75;;;;;19.25;70.47;101516.81;5100793;27;45533;-70
2021/09/03 07:53:31;;;;;;;;;44.50;33.00;;;;;19.35;69.64;101524.16;5085892;27;45298;-73
2021/09/03 07:55:57;;;;;;;;;48.25;35.50;;;;;19.47;69.50;101529.75;5080227;27;45260;-71
2021/09/03 07:58:23;;;;;;;;;39.25;32.00;;;;;19.57;69.33;101523.06;5102632;27;45580;-73
2021/09/03 08:00:48;;;;;;;;;41.50;33.75;;;;;19.60;68.94;101523.75;5082060;27;48082;-71
2021/09/03 08:03:14;;;;;;;;;39.00;32.00;;;;;19.73;68.31;101523.97;5080526;27;45685;-73
2021/09/03 08:05:39;;;;;;;;;38.75;32.00;;;;;19.86;67.76;101519.75;5102358;27;45405;-70
2021/09/03 08:08:06;;;;;;;;;44.25;36.25;;;;;19.97;68.21;101524.44;5110083;27;45780;-68
2021/09/03 08:10:33;;;;;;;;;44.00;32.25;;;;;20.08;67.85;101524.72;5102395;27;45510;-68
2021/09/03 08:13:02;;;;;;;;;43.00;33.75;;;;;20.21;67.49;101519.59;5101569;27;45959;-67
2021/09/03 08:15:29;;;;;;;;;41.50;33.50;;;;;20.28;65.91;101521.84;5102834;27;45248;-67
2021/09/03 08:17:55;;;;;;;;;42.75;32.50;;;;;20.29;66.25;101520.91;5083752;27;45540;-67
2021/09/03 08:20:21;;;;;;;;;40.00;32.75;;;;;20.40;66.56;101519.44;5082909;27;46400;-67
2021/09/03 08:22:48;;;;;;;;;33.00;31.00;;;;;20.46;64.60;101512.06;5102426;27;45460;-67
2021/09/03 08:25:14;;;;;;;;;37.25;28.75;;;;;20.48;65.92;101520.75;5097847;27;45533;-67
2021/09/03 08:27:39;;;;;;;;;40.00;32.00;;;;;20.51;66.14;101522.34;5102395;27;45188;-67
2021/09/03 08:30:05;;;;;;;;;33.50;28.25;;;;;20.60;66.17;101519.19;5084190;27;47303;-68
2021/09/03 08:32:31;;;;;;;;;37.00;31.75;;;;;20.62;64.97;101519.94;5096762;27;45757;-68
2021/09/03 08:34:57;;;;;;;;;39.25;32.25;;;;;20.67;65.10;101517.06;5102264;27;45422;-68
2021/09/03 08:37:22;;;;;;;;;37.75;32.75;;;;;20.74;65.22;101519.25;5101215;27;45244;-70
2021/09/03 08:39:49;;;;;;;;;37.25;32.00;;;;;20.78;65.24;101512.84;5101311;27;46493;-68
2021/09/03 08:42:15;;;;;;;;;34.75;31.75;;;;;20.85;65.29;101516.84;5101207;27;45379;-68
2021/09/03 08:44:40;;;;;;;;;32.00;26.25;;;;;20.85;64.99;101516.84;5101494;27;45373;-66
2021/09/03 08:47:09;;;;;;;;;30.25;26.00;;;;;20.88;63.92;101514.03;5089930;27;45686;-67
2021/09/03 08:49:34;;;;;;;;;30.25;28.25;;;;;20.94;64.68;101512.81;5101486;27;46426;-67
2021/09/03 08:52:00;;;;;;;;;30.25;28.50;;;;;21.02;64.07;101515.84;5102407;27;45357;-70
2021/09/03 08:54:25;;;;;;;;;30.00;27.00;;;;;21.10;63.95;101504.84;5101455;27;45232;-71
2021/09/03 08:56:50;;;;;;;;;29.75;24.00;;;;;21.16;63.71;101497.38;5080705;28;45220;-70
2021/09/03 08:59:16;;;;;;;;;29.25;23.00;;;;;21.29;63.86;101500.19;5096349;27;46238;-67
2021/09/03 09:01:41;;;;;;;;;25.50;21.75;;;;;21.35;61.78;101499.81;5102221;27;45354;-70
2021/09/03 09:04:15;;;;;;;;;29.00;22.75;;;;;21.42;62.56;101506.41;5083111;27;45501;-70
2021/09/03 09:07:00;;;;;;;;;30.25;23.50;;;;;21.51;62.20;101505.88;5104907;27;45221;-66
2021/09/03 09:09:38;;;;;;;;;24.50;22.50;;;;;21.65;61.97;101509.47;5104816;27;45491;-67
2021/09/03 09:12:12;;;;;;;;;26.75;23.25;;;;;21.77;61.35;101500.78;5102513;27;45222;-67
2021/09/03 09:15:07;;;;;;;;;26.00;23.25;;;;;21.88;61.45;101500.97;5100665;27;45289;-66
2021/09/03 09:17:34;;;;;;;;;32.00;21.75;;;;;21.96;61.92;101498.69;5100156;27;45485;-67
2021/09/03 09:20:01;;;;;;;;;24.50;22.50;;;;;22.00;61.07;101500.19;5100701;27;46910;-69
2021/09/03 09:22:27;;;;;;;;;27.00;24.00;;;;;22.03;60.91;101481.47;5099923;27;45376;-68
2021/09/03 09:25:16;;;;;;;;;24.50;20.50;;;;;22.07;59.72;101487.44;5100622;27;45391;-68
2021/09/03 09:27:41;;;;;;;;;28.75;25.50;;;;;22.15;60.29;101493.09;5098345;27;45477;-66
2021/09/03 09:30:21;;;;;;;;;26.00;20.50;;;;;22.23;59.89;101489.97;5099078;27;46419;-67
2021/09/03 09:33:12;;;;;;;;;23.75;23.00;;;;;22.33;59.55;101491.06;5081609;27;45871;-66
2021/09/03 09:35:43;;;;;;;;;21.00;19.50;;;;;22.41;59.32;101478.16;5100031;27;45255;-68
2021/09/03 09:38:09;;;;;;;;;25.25;20.50;;;;;22.54;59.21;101486.16;5101014;27;45471;-65
2021/09/03 09:40:54;;;;;;;;;28.25;24.75;;;;;22.64;58.47;101485.47;5100896;27;46157;-66
2021/09/03 09:43:22;;;;;;;;;23.25;22.50;;;;;22.74;58.37;101489.19;5097867;27;45364;-65
2021/09/03 09:46:07;;;;;;;;;28.25;23.75;;;;;22.86;57.27;101484.06;5100525;27;45418;-66
2021/09/03 09:48:35;;;;;;;;;27.25;23.25;;;;;22.95;57.96;101488.75;5099021;27;45521;-66
2021/09/03 09:51:00;;;;;;;;;29.00;23.75;;;;;23.05;56.62;101476.56;5098999;27;45418;-66
2021/09/03 09:53:26;;;;;;;;;27.75;23.25;;;;;23.18;55.75;101481.88;5101439;27;45458;-64
2021/09/03 09:55:51;;;;;;;;;20.75;19.00;;;;;23.34;56.77;101477.22;5101102;27;45349;-65
2021/09/03 09:58:19;;;;;;;;;26.00;22.50;;;;;23.47;56.78;101472.78;5096325;27;45596;-66
2021/09/03 10:00:45;;;;;;;;;23.75;22.75;;;;;23.53;55.59;101466.19;5082890;27;48100;-66
2021/09/03 10:03:11;;;;;;;;;24.75;20.75;;;;;23.57;55.85;101463.22;5101036;27;45290;-66
2021/09/03 10:05:37;;;;;;;;;25.00;22.00;;;;;23.65;54.73;101465.34;5100906;27;45427;-65
2021/09/03 10:08:04;;;;;;;;;20.75;20.00;;;;;23.67;54.09;101456.31;5110157;27;45415;-65
2021/09/03 10:10:30;;;;;;;;;18.00;18.00;;;;;23.68;54.61;101462.47;5099340;27;45837;-66
2021/09/03 10:12:57;;;;;;;;;18.25;16.00;;;;;23.70;55.14;101459.72;5098577;27;45425;-66
2021/09/03 10:15:22;;;;;;;;;29.00;20.00;;;;;23.79;53.99;101462.53;5097258;27;45457;-65
2021/09/03 10:17:49;;;;;;;;;22.50;19.25;;;;;23.89;54.78;101460.09;5100325;27;45329;-70
2021/09/03 10:20:16;;;;;;;;;23.50;20.75;;;;;23.97;54.78;101450.59;5098038;27;45430;-68
2021/09/03 10:22:44;;;;;;;;;24.75;19.00;;;;;24.08;54.33;101451.66;5098947;27;45563;-51
2021/09/03 10:25:10;;;;;;;;;22.75;19.75;;;;;24.11;54.07;101443.44;5098235;27;45422;-52
2021/09/03 10:27:37;;;;;;;;;16.75;16.25;;;;;24.09;53.87;101442.72;5096327;27;45459;-51
2021/09/03 10:30:17;;;;;;;;;22.50;18.25;;;;;24.13;51.97;101445.03;5096553;27;45470;-52
2021/09/03 10:32:43;;;;;;;;;19.25;18.25;;;;;24.22;52.08;101448.81;5095142;27;45450;-62
2021/09/03 10:35:20;;;;;;;;;21.50;20.75;;;;;24.33;52.13;101450.72;5098304;27;45628;-62
2021/09/03 10:37:47;;;;;;;;;23.25;20.25;;;;;24.51;52.51;101438.72;5078210;27;45780;-62
2021/09/03 10:40:35;;;;;;;;;18.50;16.00;;;;;24.60;52.08;101446.00;5098497;27;46426;-61
2021/09/03 10:43:00;;;;;;;;;20.25;18.50;;;;;24.76;51.62;101446.53;5097972;27;45250;-62
2021/09/03 10:45:46;;;;;;;;;19.25;17.50;;;;;24.89;51.38;101441.16;5096888;27;45216;-60
2021/09/03 10:48:20;;;;;;;;;22.50;19.25;;;;;25.01;50.60;101450.84;5096690;27;45248;-60
2021/09/03 10:50:55;;;;;;;;;21.25;21.25;;;;;25.09;50.48;101436.97;5096401;27;45445;-60
2021/09/03 10:53:26;;;;;;;;;23.25;21.00;;;;;25.18;49.93;101444.25;5098277;27;45506;-61
2021/09/03 10:56:13;;;;;;;;;20.00;18.50;;;;;25.25;49.25;101437.50;5098799;27;45424;-61
2021/09/03 10:58:48;;;;;;;;;24.75;18.50;;;;;25.30;49.12;101437.13;5096783;27;45481;-60
2021/09/03 11:01:27;;;;;;;;;24.00;20.25;;;;;25.34;49.22;101430.59;5098364;27;46372;-60
2021/09/03 11:04:03;;;;;;;;;20.00;17.50;;;;;25.43;47.58;101433.41;5073588;27;45398;-60
2021/09/03 11:06:32;;;;;;;;;19.25;19.00;;;;;25.47;47.95;101416.22;5096367;27;45615;-61
2021/09/03 11:09:05;;;;;;;;;25.25;19.00;;;;;25.56;48.38;101421.75;5098295;27;45596;-61